Time;durP1;ratioP1;P1;durP2;ratioP2;P2;SDS_P1;SDS_P2;PMS_P1;PMS_P2;Temp;Humidity;BMP_temperature;BMP_pressure;BME280_temperature;BME280_humidity;BME280_pressure;Samples;Min_cycle;Max_cycle;Signal;HPM_P1;HPM_P2
2021/07/19 00:00:18;;;;;;;4.03;3.30;;;23.10;92.00;;;;;;4997154;28;20474;-87
2021/07/19 00:02:45;;;;;;;4.27;3.27;;;23.20;92.10;;;;;;5000361;28;20477;-89
2021/07/19 00:05:20;;;;;;;3.87;3.10;;;23.10;92.20;;;;;;5003625;28;20462;-87
2021/07/19 00:07:47;;;;;;;3.50;3.20;;;23.00;92.40;;;;;;5007459;28;20501;-89
2021/07/19 00:10:16;;;;;;;3.50;3.10;;;23.00;92.80;;;;;;5009720;28;20463;-89
2021/07/19 00:12:51;;;;;;;4.10;3.07;;;23.00;93.00;;;;;;5007398;28;20467;-89
2021/07/19 00:15:24;;;;;;;4.00;3.00;;;23.00;93.20;;;;;;5007241;28;20442;-87
2021/07/19 00:26:33;;;;;;;3.87;3.57;;;22.80;94.10;;;;;;4922357;29;20449;-86
2021/07/19 01:20:03;;;;;;;4.90;3.73;;;22.20;97.80;;;;;;4156110;23;21595;-86
2021/07/19 01:23:13;;;;;;;4.60;3.90;;;22.10;97.90;;;;;;5025128;28;20465;-86
2021/07/19 01:25:53;;;;;;;6.50;4.23;;;21.90;98.10;;;;;;5028675;28;20439;-87
2021/07/19 01:28:33;;;;;;;4.43;3.80;;;21.90;98.50;;;;;;5033384;28;20446;-88
2021/07/19 01:31:04;;;;;;;4.80;3.67;;;21.80;98.60;;;;;;5047225;28;20453;-87
2021/07/19 01:33:33;;;;;;;5.90;4.03;;;21.80;98.80;;;;;;5025322;28;20446;-88
2021/07/19 01:36:04;;;;;;;4.63;4.20;;;21.80;98.80;;;;;;5038085;28;20442;-87
2021/07/19 01:38:59;;;;;;;6.90;4.23;;;21.80;98.80;;;;;;4999575;28;20529;-87
2021/07/19 01:41:31;;;;;;;8.07;4.17;;;21.80;99.10;;;;;;5027869;28;20482;-87
2021/07/19 01:43:59;;;;;;;5.57;3.70;;;21.80;99.20;;;;;;5012730;28;20441;-86
2021/07/19 01:46:27;;;;;;;5.40;4.50;;;21.80;99.20;;;;;;5000025;28;20450;-87
2021/07/19 01:48:56;;;;;;;4.50;3.90;;;21.70;99.30;;;;;;5004329;28;20592;-86
2021/07/19 01:51:24;;;;;;;6.23;4.07;;;21.70;99.40;;;;;;5028345;28;20842;-87
2021/07/19 01:53:52;;;;;;;5.90;3.80;;;21.70;99.60;;;;;;5019728;28;20447;-86
2021/07/19 01:56:19;;;;;;;5.43;4.17;;;21.60;99.90;;;;;;5020856;28;20453;-86
2021/07/19 01:58:46;;;;;;;4.80;4.20;;;21.60;99.90;;;;;;5021251;28;20453;-86
2021/07/19 02:01:14;;;;;;;4.73;4.33;;;21.50;99.90;;;;;;5039671;28;20484;-86
2021/07/19 02:03:41;;;;;;;7.70;4.80;;;21.50;99.90;;;;;;5040069;28;20970;-85
2021/07/19 02:06:09;;;;;;;8.33;5.20;;;21.50;99.90;;;;;;5021500;28;20445;-85
2021/07/19 02:08:37;;;;;;;4.73;4.33;;;21.40;99.90;;;;;;5020409;28;20453;-85
2021/07/19 02:11:05;;;;;;;5.77;3.77;;;21.40;99.90;;;;;;5038288;28;20469;-87
2021/07/19 02:16:30;;;;;;;5.77;3.80;;;21.40;99.90;;;;;;5021674;28;20422;-84
2021/07/19 02:18:59;;;;;;;7.30;4.40;;;21.30;99.90;;;;;;5035685;28;20453;-87
2021/07/19 02:21:26;;;;;;;4.73;4.20;;;21.30;99.90;;;;;;5019614;28;20491;-86
2021/07/19 02:24:02;;;;;;;5.23;4.23;;;21.30;99.90;;;;;;5024198;28;20448;-87
2021/07/19 02:26:30;;;;;;;5.87;5.10;;;21.30;99.90;;;;;;5021570;28;20527;-86
2021/07/19 02:28:57;;;;;;;12.03;5.23;;;21.40;99.90;;;;;;5039098;28;20452;-86
2021/07/19 02:31:24;;;;;;;6.30;4.47;;;21.40;99.90;;;;;;5034285;28;20476;-86
2021/07/19 02:33:52;;;;;;;4.83;4.33;;;21.40;99.90;;;;;;5013478;28;20999;-87
2021/07/19 02:36:21;;;;;;;6.60;4.40;;;21.30;99.90;;;;;;5012457;28;20667;-86
2021/07/19 02:38:59;;;;;;;4.57;4.17;;;21.30;99.90;;;;;;5013807;28;20536;-87
2021/07/19 02:41:28;;;;;;;5.27;4.77;;;21.30;99.90;;;;;;5013420;28;20480;-86
2021/07/19 02:43:58;;;;;;;4.83;4.33;;;21.30;99.90;;;;;;5014565;28;20453;-87
2021/07/19 02:46:27;;;;;;;4.53;4.03;;;21.30;99.90;;;;;;5014672;28;20441;-86
2021/07/19 02:48:56;;;;;;;5.03;4.63;;;21.20;99.90;;;;;;5035882;28;20448;-90
2021/07/19 02:51:25;;;;;;;4.40;4.10;;;21.10;99.90;;;;;;5039738;28;20457;-90
2021/07/19 02:53:53;;;;;;;5.03;4.33;;;21.10;99.90;;;;;;5031828;28;20492;-88
2021/07/19 02:56:23;;;;;;;7.63;4.27;;;21.20;99.90;;;;;;5054636;28;20746;-89
2021/07/19 02:58:50;;;;;;;4.83;4.20;;;21.20;99.90;;;;;;5055213;28;20450;-84
2021/07/19 03:01:21;;;;;;;5.40;4.00;;;21.10;99.90;;;;;;5016894;28;20492;-84
2021/07/19 03:03:50;;;;;;;5.17;4.60;;;21.10;99.90;;;;;;5036456;28;20519;-85
2021/07/19 03:06:21;;;;;;;6.90;4.50;;;21.00;99.90;;;;;;5031069;28;20549;-86
2021/07/19 03:08:48;;;;;;;6.27;4.87;;;21.00;99.90;;;;;;5007605;28;20939;-84
2021/07/19 03:11:25;;;;;;;7.70;4.20;;;20.90;99.90;;;;;;5015302;28;20556;-87
2021/07/19 03:13:55;;;;;;;4.67;4.27;;;20.90;99.90;;;;;;5019213;28;20460;-87
2021/07/19 03:16:26;;;;;;;9.10;4.90;;;20.90;99.90;;;;;;5018285;28;20533;-85
2021/07/19 03:18:54;;;;;;;3.93;3.53;;;20.90;99.90;;;;;;5003098;28;20466;-86
2021/07/19 03:21:22;;;;;;;6.17;4.53;;;20.90;99.90;;;;;;5041255;28;20480;-85
2021/07/19 03:23:52;;;;;;;8.07;5.60;;;20.80;99.90;;;;;;5047831;28;20468;-85
2021/07/19 03:26:27;;;;;;;5.40;4.40;;;20.80;99.90;;;;;;5041471;28;20766;-85
2021/07/19 03:28:55;;;;;;;7.03;4.30;;;20.90;99.90;;;;;;5044501;28;20441;-86
2021/07/19 03:31:22;;;;;;;5.20;4.70;;;20.90;99.90;;;;;;5027158;28;20776;-85
2021/07/19 03:33:50;;;;;;;6.00;4.20;;;20.80;99.90;;;;;;5027489;28;20446;-83
2021/07/19 03:36:18;;;;;;;4.80;4.30;;;20.70;99.90;;;;;;5036932;28;20453;-84
2021/07/19 03:38:47;;;;;;;6.00;4.70;;;20.60;99.90;;;;;;5010191;28;20914;-84
2021/07/19 03:41:16;;;;;;;6.27;5.33;;;20.50;99.90;;;;;;5006158;28;20517;-86
2021/07/19 03:43:45;;;;;;;5.33;4.00;;;20.50;99.90;;;;;;5036629;28;20818;-88
2021/07/19 03:46:13;;;;;;;7.30;4.50;;;20.50;99.90;;;;;;5053428;28;20453;-87
2021/07/19 03:48:41;;;;;;;6.00;3.77;;;20.40;99.90;;;;;;5037615;28;20500;-86
2021/07/19 03:51:09;;;;;;;4.63;3.70;;;20.50;99.90;;;;;;5040517;28;20461;-84
2021/07/19 03:53:37;;;;;;;5.20;3.90;;;20.40;99.90;;;;;;5026232;28;20453;-86
2021/07/19 03:56:05;;;;;;;5.37;4.47;;;20.40;99.90;;;;;;5027663;28;20536;-86
2021/07/19 03:58:32;;;;;;;6.13;4.60;;;20.40;99.90;;;;;;5043550;28;20442;-87
2021/07/19 04:01:00;;;;;;;4.43;4.03;;;20.30;99.90;;;;;;5035044;28;20492;-84
2021/07/19 04:03:31;;;;;;;8.73;4.43;;;20.10;99.90;;;;;;5025862;28;20442;-87
2021/07/19 04:06:00;;;;;;;7.20;4.67;;;20.10;99.90;;;;;;5021173;28;20456;-85
2021/07/19 04:08:31;;;;;;;4.97;4.47;;;20.10;99.90;;;;;;5025680;28;20525;-83
2021/07/19 04:10:59;;;;;;;7.00;4.17;;;20.10;99.90;;;;;;5041460;28;20489;-85
2021/07/19 04:13:27;;;;;;;5.10;4.57;;;20.00;99.90;;;;;;5024942;28;20444;-85
2021/07/19 04:15:54;;;;;;;8.13;4.83;;;20.10;99.90;;;;;;5031965;28;20463;-84
2021/07/19 04:18:24;;;;;;;6.10;4.60;;;20.10;99.90;;;;;;5008561;28;20452;-86
2021/07/19 04:20:53;;;;;;;5.77;4.57;;;20.20;99.90;;;;;;5026536;28;20490;-85
2021/07/19 04:23:21;;;;;;;5.40;4.90;;;20.30;99.90;;;;;;5035834;28;20686;-83
2021/07/19 04:25:49;;;;;;;7.70;5.07;;;20.50;99.90;;;;;;5039836;28;20449;-84
2021/07/19 04:28:20;;;;;;;7.90;4.73;;;20.40;99.90;;;;;;5034948;28;20450;-83
2021/07/19 04:30:49;;;;;;;13.53;6.83;;;20.40;99.90;;;;;;5023476;28;20497;-85
2021/07/19 04:33:22;;;;;;;6.57;4.90;;;20.20;99.90;;;;;;5014286;28;20816;-83
2021/07/19 04:35:51;;;;;;;5.03;4.53;;;20.20;99.90;;;;;;5022275;28;20503;-85
2021/07/19 04:38:21;;;;;;;7.53;5.17;;;20.40;99.90;;;;;;5022170;28;20457;-84
2021/07/19 04:40:55;;;;;;;6.10;5.10;;;20.40;99.90;;;;;;5045144;28;20564;-84
2021/07/19 04:43:23;;;;;;;7.67;6.10;;;20.50;99.90;;;;;;5044608;28;20547;-83
2021/07/19 04:45:51;;;;;;;6.33;5.70;;;20.50;99.90;;;;;;5027080;28;20458;-86
2021/07/19 04:48:19;;;;;;;7.70;5.27;;;20.70;99.90;;;;;;5045827;28;20506;-85
2021/07/19 04:50:47;;;;;;;9.70;6.77;;;20.70;99.90;;;;;;5032044;28;20485;-86
2021/07/19 04:53:14;;;;;;;10.07;6.90;;;20.70;99.90;;;;;;5018603;28;20508;-85
2021/07/19 04:55:52;;;;;;;9.77;7.10;;;20.70;99.90;;;;;;5009198;28;20457;-83
2021/07/19 04:58:22;;;;;;;10.17;7.50;;;20.50;99.90;;;;;;5035679;28;20464;-83
2021/07/19 05:01:03;;;;;;;9.93;7.97;;;20.60;99.90;;;;;;5035958;28;20485;-83
2021/07/19 05:03:35;;;;;;;10.27;9.00;;;20.70;99.90;;;;;;5036900;28;20939;-85
2021/07/19 05:06:03;;;;;;;9.13;8.20;;;20.70;99.90;;;;;;5029806;28;20457;-83
2021/07/19 05:08:31;;;;;;;9.20;8.20;;;20.50;99.90;;;;;;5031162;28;20435;-83
2021/07/19 05:10:58;;;;;;;12.37;9.27;;;20.40;99.90;;;;;;5028119;28;20500;-85
2021/07/19 05:13:27;;;;;;;10.27;9.33;;;20.50;99.90;;;;;;5037753;28;20453;-84
2021/07/19 05:15:54;;;;;;;11.00;10.00;;;20.60;99.90;;;;;;5003479;28;20484;-84
2021/07/19 05:18:24;;;;;;;13.43;9.70;;;20.70;99.90;;;;;;5014790;28;20453;-83
2021/07/19 05:20:51;;;;;;;10.80;9.70;;;20.70;99.90;;;;;;5027695;28;20473;-83
2021/07/19 05:23:22;;;;;;;12.07;9.17;;;20.90;99.90;;;;;;5020509;28;20452;-85
2021/07/19 05:25:49;;;;;;;13.73;9.50;;;20.60;99.90;;;;;;5015709;28;20792;-84
2021/07/19 05:28:16;;;;;;;14.27;10.80;;;20.80;99.90;;;;;;5037726;28;20545;-84
2021/07/19 05:30:52;;;;;;;14.23;9.00;;;21.00;99.90;;;;;;5038296;28;20521;-84
2021/07/19 05:33:22;;;;;;;10.43;9.33;;;20.80;99.90;;;;;;5010574;28;20441;-84
2021/07/19 05:35:50;;;;;;;10.27;9.17;;;20.90;99.90;;;;;;5021486;28;20445;-86
2021/07/19 05:38:17;;;;;;;11.13;9.53;;;20.70;99.90;;;;;;5040545;28;20457;-85
2021/07/19 05:40:44;;;;;;;10.10;9.20;;;20.90;99.90;;;;;;5039845;28;20473;-88
2021/07/19 05:43:11;;;;;;;10.43;9.53;;;20.90;99.90;;;;;;5032937;28;20449;-89
2021/07/19 05:45:38;;;;;;;11.53;10.23;;;21.20;99.90;;;;;;5038532;28;20969;-84
2021/07/19 05:48:06;;;;;;;12.27;9.23;;;21.30;99.90;;;;;;5002817;28;20459;-86
2021/07/19 05:50:33;;;;;;;9.30;8.30;;;21.10;99.90;;;;;;5020586;28;20471;-84
2021/07/19 05:53:03;;;;;;;9.33;8.40;;;21.10;99.90;;;;;;5014188;28;20797;-85
2021/07/19 05:55:34;;;;;;;11.80;9.57;;;21.20;99.90;;;;;;5028755;28;20934;-84
2021/07/19 05:58:01;;;;;;;11.33;10.23;;;21.30;99.90;;;;;;5019024;28;20441;-85
2021/07/19 06:00:28;;;;;;;14.33;11.87;;;21.40;99.90;;;;;;5021284;28;20537;-84
2021/07/19 06:02:55;;;;;;;13.83;11.37;;;21.50;99.50;;;;;;5019233;28;20449;-81
2021/07/19 06:05:22;;;;;;;11.00;9.90;;;21.50;99.40;;;;;;5018503;28;20453;-86
2021/07/19 06:07:48;;;;;;;11.93;9.77;;;21.50;99.50;;;;;;5018263;28;20441;-82
2021/07/19 06:10:15;;;;;;;10.73;9.00;;;21.50;99.70;;;;;;5020184;28;20545;-85
2021/07/19 06:12:43;;;;;;;9.87;8.10;;;21.60;99.60;;;;;;5019650;28;20473;-84
2021/07/19 06:15:11;;;;;;;9.63;8.63;;;21.60;99.70;;;;;;5039109;28;20463;-83
2021/07/19 06:17:38;;;;;;;10.60;7.90;;;21.90;99.00;;;;;;5021200;28;20449;-82
2021/07/19 06:20:13;;;;;;;10.57;9.57;;;21.80;99.10;;;;;;5037851;28;20457;-84
2021/07/19 06:22:41;;;;;;;9.07;8.10;;;21.70;98.70;;;;;;5018579;28;20567;-86
2021/07/19 06:25:12;;;;;;;14.20;9.03;;;21.70;98.60;;;;;;5036033;28;20441;-83
2021/07/19 06:27:40;;;;;;;9.30;7.03;;;21.70;98.70;;;;;;5018893;28;20441;-84
2021/07/19 06:30:09;;;;;;;7.50;6.70;;;21.60;98.80;;;;;;5037618;28;20457;-84
2021/07/19 06:32:37;;;;;;;9.00;6.30;;;21.70;98.10;;;;;;5020275;28;20472;-85
2021/07/19 06:35:06;;;;;;;7.90;6.30;;;21.70;98.20;;;;;;5035699;28;20452;-84
2021/07/19 06:37:32;;;;;;;6.80;6.13;;;21.60;97.60;;;;;;5019196;28;20536;-83
2021/07/19 06:39:59;;;;;;;7.23;6.63;;;21.60;97.90;;;;;;5019183;28;20447;-83
2021/07/19 06:42:28;;;;;;;7.73;6.93;;;22.00;96.60;;;;;;5035846;28;20805;-85
2021/07/19 06:44:58;;;;;;;7.07;6.40;;;22.20;95.60;;;;;;5018195;28;20483;-85
2021/07/19 06:47:26;;;;;;;7.37;6.67;;;22.10;95.50;;;;;;5017910;28;20464;-86
2021/07/19 06:49:55;;;;;;;7.13;6.43;;;22.60;94.80;;;;;;5044507;28;20445;-85
2021/07/19 06:52:23;;;;;;;6.13;5.53;;;22.70;94.10;;;;;;5022673;28;20478;-84
2021/07/19 06:54:51;;;;;;;8.30;6.10;;;22.50;93.80;;;;;;5020364;28;20651;-85
2021/07/19 06:57:18;;;;;;;7.07;6.47;;;22.40;93.80;;;;;;5040478;28;20456;-85
2021/07/19 06:59:46;;;;;;;6.93;6.23;;;22.70;93.50;;;;;;5039707;28;20513;-83
2021/07/19 07:02:12;;;;;;;7.90;6.87;;;22.50;93.70;;;;;;5039336;28;20485;-85
2021/07/19 07:04:41;;;;;;;7.83;7.03;;;22.40;93.40;;;;;;5020677;28;20473;-86
2021/07/19 07:07:08;;;;;;;7.70;6.90;;;22.30;93.90;;;;;;5037704;28;20465;-86
2021/07/19 07:09:35;;;;;;;7.80;7.10;;;22.40;93.70;;;;;;5037430;28;20469;-86
2021/07/19 07:12:17;;;;;;;8.43;7.53;;;22.40;93.60;;;;;;5004133;28;20500;-86
2021/07/19 07:14:43;;;;;;;7.33;6.40;;;22.10;94.10;;;;;;5034983;28;20468;-84
2021/07/19 07:17:10;;;;;;;10.07;7.47;;;21.90;94.50;;;;;;5015968;28;20488;-87
2021/07/19 07:19:36;;;;;;;8.50;7.73;;;21.90;94.50;;;;;;5016285;28;20496;-88
2021/07/19 07:22:03;;;;;;;10.20;7.33;;;22.10;94.50;;;;;;5015814;28;20477;-83
2021/07/19 07:24:31;;;;;;;6.80;6.10;;;21.80;95.30;;;;;;5017704;28;20693;-85
2021/07/19 07:26:57;;;;;;;8.00;7.23;;;21.80;95.00;;;;;;5017361;28;20453;-82
2021/07/19 07:29:25;;;;;;;7.53;6.73;;;22.00;95.10;;;;;;5017387;28;20454;-84
2021/07/19 07:31:52;;;;;;;8.40;6.80;;;21.90;95.00;;;;;;5017170;28;20500;-83
2021/07/19 07:34:19;;;;;;;9.10;8.30;;;22.10;94.80;;;;;;5019082;28;20460;-84
2021/07/19 07:36:45;;;;;;;9.43;8.53;;;21.90;94.60;;;;;;5018054;28;20461;-85
2021/07/19 07:39:12;;;;;;;9.10;8.23;;;21.90;94.70;;;;;;5035123;28;20453;-85
2021/07/19 07:41:39;;;;;;;9.63;7.60;;;22.00;94.50;;;;;;5035845;28;20496;-83
2021/07/19 07:44:06;;;;;;;8.40;7.00;;;22.00;94.70;;;;;;5035380;28;20458;-84
2021/07/19 07:46:32;;;;;;;8.47;7.30;;;21.90;95.00;;;;;;5036010;28;20453;-85
2021/07/19 07:48:59;;;;;;;8.60;7.70;;;21.90;95.10;;;;;;5016961;28;20449;-83
2021/07/19 07:51:26;;;;;;;12.70;8.23;;;22.10;94.70;;;;;;5018690;28;20953;-85
2021/07/19 07:53:53;;;;;;;8.07;7.27;;;22.00;94.60;;;;;;5035152;28;20525;-85
2021/07/19 07:56:20;;;;;;;10.70;7.67;;;22.00;94.50;;;;;;5029432;28;20530;-87
2021/07/19 07:58:46;;;;;;;8.47;7.50;;;22.00;94.50;;;;;;5018257;28;20446;-84
2021/07/19 08:01:13;;;;;;;8.20;7.47;;;21.70;94.90;;;;;;5034408;28;20466;-82
2021/07/19 08:03:40;;;;;;;8.93;8.03;;;21.90;93.90;;;;;;5019786;28;20541;-84
2021/07/19 08:06:07;;;;;;;8.30;7.50;;;22.10;92.50;;;;;;5019187;28;20454;-84
2021/07/19 08:08:34;;;;;;;8.83;8.03;;;21.90;92.70;;;;;;5019813;28;20457;-82
2021/07/19 08:11:01;;;;;;;8.97;8.07;;;21.70;93.00;;;;;;5018346;28;20477;-86
2021/07/19 08:13:28;;;;;;;9.23;8.10;;;22.10;92.60;;;;;;5018353;28;20448;-84
2021/07/19 08:15:54;;;;;;;9.50;8.57;;;22.30;92.00;;;;;;5017994;28;20457;-85
2021/07/19 08:18:21;;;;;;;8.37;7.47;;;22.40;92.20;;;;;;5036785;28;20516;-86
2021/07/19 08:20:48;;;;;;;9.10;8.30;;;22.30;92.10;;;;;;5035570;28;20521;-83
2021/07/19 08:23:15;;;;;;;8.00;7.20;;;22.10;92.20;;;;;;5036770;28;20477;-86
2021/07/19 08:25:44;;;;;;;8.57;7.77;;;22.10;92.10;;;;;;5019459;28;20946;-86
2021/07/19 08:28:13;;;;;;;9.00;8.10;;;22.00;92.30;;;;;;5006038;28;20994;-85
2021/07/19 08:30:40;;;;;;;10.70;8.17;;;21.90;92.50;;;;;;5036673;28;20452;-84
2021/07/19 08:33:07;;;;;;;8.77;7.20;;;22.10;92.30;;;;;;5026399;28;20521;-86
2021/07/19 08:35:34;;;;;;;9.00;7.90;;;22.00;91.80;;;;;;5036648;28;20453;-83
2021/07/19 08:38:02;;;;;;;7.83;7.07;;;21.90;92.30;;;;;;5019411;28;20450;-86
2021/07/19 08:40:29;;;;;;;8.90;8.00;;;22.10;92.00;;;;;;5019261;28;20453;-84
2021/07/19 08:42:57;;;;;;;9.30;8.27;;;22.20;92.00;;;;;;5024085;28;20582;-87
2021/07/19 08:45:23;;;;;;;8.70;7.80;;;22.20;92.20;;;;;;5034768;28;20452;-85
2021/07/19 08:47:52;;;;;;;8.53;7.33;;;22.50;91.70;;;;;;5037556;28;20471;-88
2021/07/19 08:50:21;;;;;;;8.20;7.40;;;22.30;91.90;;;;;;5028539;28;20457;-86
2021/07/19 08:52:53;;;;;;;10.90;8.23;;;22.40;91.80;;;;;;5016810;28;20541;-86
2021/07/19 08:55:22;;;;;;;8.67;7.80;;;22.50;91.60;;;;;;5025684;28;20453;-83
2021/07/19 08:57:50;;;;;;;9.60;8.70;;;22.30;92.10;;;;;;5043371;28;20451;-82
2021/07/19 09:00:20;;;;;;;8.97;7.97;;;22.60;92.20;;;;;;5021279;28;20497;-85
2021/07/19 09:02:49;;;;;;;9.33;8.53;;;22.50;92.10;;;;;;5043368;28;20476;-85
2021/07/19 09:05:15;;;;;;;9.43;8.53;;;22.50;92.10;;;;;;5038605;28;20437;-88
2021/07/19 09:07:43;;;;;;;10.50;9.40;;;22.30;92.20;;;;;;5037838;28;20441;-89
2021/07/19 09:10:13;;;;;;;8.70;7.80;;;22.10;92.50;;;;;;5051575;28;20449;-89
2021/07/19 09:12:45;;;;;;;8.93;7.47;;;22.20;92.70;;;;;;5024624;28;20523;-89
2021/07/19 09:15:28;;;;;;;11.43;10.23;;;22.20;92.60;;;;;;5015855;28;20529;-85
2021/07/19 09:17:56;;;;;;;9.73;8.73;;;22.10;92.40;;;;;;5015244;28;20441;-86
2021/07/19 09:20:43;;;;;;;11.53;10.33;;;22.20;92.50;;;;;;5009362;28;20454;-84
2021/07/19 09:23:11;;;;;;;11.97;9.00;;;22.40;92.20;;;;;;5035093;28;20472;-84
2021/07/19 09:25:39;;;;;;;12.00;10.67;;;22.80;91.60;;;;;;5018555;28;20457;-85
2021/07/19 09:28:10;;;;;;;10.67;9.53;;;22.90;91.10;;;;;;5018039;28;20426;-86
2021/07/19 09:30:45;;;;;;;11.47;9.50;;;23.10;91.00;;;;;;5038201;28;20464;-86
2021/07/19 09:33:14;;;;;;;10.57;9.07;;;23.20;90.60;;;;;;5023478;28;20536;-85
2021/07/19 09:35:50;;;;;;;13.47;9.93;;;23.20;90.40;;;;;;5024764;28;20537;-87
2021/07/19 09:38:19;;;;;;;15.17;9.50;;;23.30;90.00;;;;;;5019984;28;20468;-87
2021/07/19 09:40:47;;;;;;;12.23;10.30;;;23.40;89.20;;;;;;5022448;28;20477;-88
2021/07/19 09:43:23;;;;;;;12.83;11.57;;;23.30;88.80;;;;;;5031045;28;20553;-87
2021/07/19 09:46:00;;;;;;;13.33;9.93;;;23.10;89.40;;;;;;5036264;28;20465;-89
2021/07/19 09:48:28;;;;;;;11.90;10.70;;;23.10;90.00;;;;;;5048384;28;20441;-88
2021/07/19 09:50:58;;;;;;;11.67;10.47;;;23.20;90.10;;;;;;5037855;28;20517;-88
2021/07/19 09:53:42;;;;;;;11.10;10.07;;;23.10;89.60;;;;;;5027455;28;20448;-88
2021/07/19 09:56:13;;;;;;;12.07;10.87;;;23.30;89.90;;;;;;5023753;28;20441;-87
2021/07/19 09:58:47;;;;;;;13.53;11.30;;;23.70;88.30;;;;;;5034153;28;20456;-87
2021/07/19 10:01:31;;;;;;;17.90;11.00;;;23.70;87.80;;;;;;5021439;28;20473;-86
2021/07/19 10:07:07;;;;;;;11.67;10.43;;;23.70;86.60;;;;;;5024697;28;20458;-88
2021/07/19 10:09:38;;;;;;;11.07;10.07;;;23.60;87.40;;;;;;5043318;28;20519;-87
2021/07/19 10:12:14;;;;;;;13.17;11.27;;;23.20;88.40;;;;;;5020696;28;20534;-85
2021/07/19 10:14:47;;;;;;;11.40;10.00;;;23.30;89.00;;;;;;5025165;28;20453;-86
2021/07/19 10:17:17;;;;;;;12.13;10.83;;;23.30;90.10;;;;;;5019353;28;20483;-86
2021/07/19 10:19:44;;;;;;;10.97;9.87;;;23.10;90.70;;;;;;5035562;28;20538;-87
2021/07/19 10:22:28;;;;;;;11.40;10.20;;;22.90;90.50;;;;;;5030521;28;20477;-86
2021/07/19 10:25:18;;;;;;;15.13;11.20;;;23.10;90.40;;;;;;5011091;28;20453;-85
2021/07/19 10:27:59;;;;;;;14.80;11.80;;;23.30;90.10;;;;;;5015822;28;20476;-86
2021/07/19 10:33:20;;;;;;;;;;;;;;;;;;;;;
2021/07/19 10:36:42;;;;;;;14.30;12.50;;;23.40;88.00;;;;;;4989948;28;20602;-82
2021/07/19 10:55:27;;;;;;;14.20;12.67;;;23.50;88.00;;;;;;4806172;29;20455;-84
2021/07/19 11:06:31;;;;;;;16.37;14.17;;;23.80;88.00;;;;;;4916825;29;20470;-83
2021/07/19 11:13:29;;;;;;;15.43;13.83;;;23.80;87.20;;;;;;4918158;29;20477;-83
2021/07/19 11:16:21;;;;;;;15.00;13.50;;;23.50;88.00;;;;;;4889676;29;20530;-82
2021/07/19 11:23:43;;;;;;;;;;;;;;;;;;;;;
2021/07/19 11:27:06;;;;;;;;;;;;;;;;;;;;;
2021/07/19 11:34:38;;;;;;;;;;;;;;;;;;;;;
2021/07/19 11:41:01;;;;;;;16.23;13.33;;;23.50;88.20;;;;;;4910997;29;20447;-81
2021/07/19 11:44:19;;;;;;;14.60;13.10;;;23.60;88.20;;;;;;4885558;29;20574;-83
2021/07/19 11:47:24;;;;;;;15.27;13.63;;;24.10;87.60;;;;;;4894124;29;20533;-83
2021/07/19 11:50:35;;;;;;;12.57;11.27;;;24.20;85.70;;;;;;4907228;29;20453;-85
2021/07/19 11:53:44;;;;;;;14.23;12.83;;;24.80;83.70;;;;;;4898884;29;20454;-83
2021/07/19 11:57:09;;;;;;;13.67;12.23;;;24.60;83.50;;;;;;4887156;29;20448;-84
2021/07/19 11:59:58;;;;;;;13.97;12.20;;;24.30;83.80;;;;;;4880306;29;20967;-83
2021/07/19 12:02:57;;;;;;;12.57;11.37;;;23.90;86.40;;;;;;4912765;29;20487;-84
2021/07/19 12:06:13;;;;;;;13.03;11.67;;;23.80;87.10;;;;;;4893462;29;20804;-82
2021/07/19 12:12:43;;;;;;;13.37;11.70;;;23.90;86.20;;;;;;4980589;28;20470;-86
2021/07/19 12:24:04;;;;;;;13.30;12.00;;;24.20;85.40;;;;;;4992331;28;20523;-83
2021/07/19 12:30:51;;;;;;;13.63;12.23;;;24.40;83.90;;;;;;4901348;29;20547;-83
2021/07/19 12:34:32;;;;;;;13.43;12.10;;;23.80;84.80;;;;;;4860383;29;20477;-83
2021/07/19 12:37:42;;;;;;;18.20;16.60;;;23.60;86.10;;;;;;4965631;28;20479;-83
2021/07/19 12:41:26;;;;;;;12.70;11.50;;;23.90;85.70;;;;;;4980783;28;20894;-84
2021/07/19 12:45:04;;;;;;;13.53;12.13;;;24.50;84.00;;;;;;4932958;29;20501;-83
2021/07/19 12:48:34;;;;;;;13.40;12.00;;;24.50;83.70;;;;;;4898927;29;20535;-85
2021/07/19 12:51:27;;;;;;;14.77;13.27;;;24.00;82.70;;;;;;4916745;29;20469;-85
2021/07/19 12:54:11;;;;;;;14.63;13.23;;;24.40;82.80;;;;;;4903223;29;20447;-84
2021/07/19 12:57:31;;;;;;;12.10;10.90;;;24.20;82.40;;;;;;4850378;29;20543;-84
2021/07/19 13:21:21;;;;;;;16.97;15.37;;;24.50;80.90;;;;;;4993204;28;20449;-84
2021/07/19 13:36:11;;;;;;;;;;;;;;;;;;;;;
2021/07/19 13:38:53;;;;;;;16.53;14.93;;;26.00;75.80;;;;;;4938821;29;20472;-84
2021/07/19 13:46:55;;;;;;;;;;;;;;;;;;;;;
2021/07/19 14:57:19;;;;;;;;;;;;;;;;;;;;;
2021/07/19 15:00:41;;;;;;;17.30;15.60;;;24.80;77.90;;;;;;5016561;28;20541;-85
2021/07/19 15:16:01;;;;;;;19.53;17.67;;;25.80;73.10;;;;;;4944548;29;20434;-85
2021/07/19 15:19:22;;;;;;;20.20;18.30;;;25.70;72.60;;;;;;4937239;29;20459;-85
2021/07/19 15:26:17;;;;;;;17.60;15.07;;;25.10;73.50;;;;;;5009711;28;20427;-86
2021/07/19 15:29:21;;;;;;;;;;;;;;;;;;;;;
2021/07/19 15:40:51;;;;;;;;;;;;;;;;;;;;;
2021/07/19 15:44:17;;;;;;;;;;;;;;;;;;;;;
2021/07/19 15:50:54;;;;;;;15.17;13.43;;;25.10;74.70;;;;;;4963737;28;20452;-83
2021/07/19 15:54:04;;;;;;;14.60;13.20;;;25.00;75.10;;;;;;4986525;28;20436;-81
2021/07/19 15:57:40;;;;;;;;;;;;;;;;;;;;;
2021/07/19 16:00:37;;;;;;;15.43;13.93;;;24.70;75.10;;;;;;4886678;29;20456;-83
2021/07/19 16:04:11;;;;;;;14.90;13.53;;;24.50;76.00;;;;;;4894722;29;20522;-83
2021/07/19 16:07:42;;;;;;;14.23;12.87;;;24.70;75.40;;;;;;4807232;29;20448;-86
2021/07/19 16:10:53;;;;;;;15.67;14.00;;;24.50;76.10;;;;;;4849623;29;20957;-84
2021/07/19 16:17:28;;;;;;;16.17;14.47;;;24.90;76.80;;;;;;4797939;29;20436;-83
2021/07/19 16:20:27;;;;;;;16.37;14.80;;;24.90;76.50;;;;;;4863371;29;20433;-84
2021/07/19 16:23:39;;;;;;;;;;;;;;;;;;;;;
2021/07/19 16:37:24;;;;;;;;;;;;;;;;;;;;;
2021/07/19 16:40:46;;;;;;;17.30;15.60;;;24.40;78.60;;;;;;4890487;29;20589;-87
2021/07/19 16:44:20;;;;;;;18.20;16.10;;;24.50;78.80;;;;;;4893303;29;20506;-83
2021/07/19 16:50:34;;;;;;;16.67;14.87;;;24.30;78.50;;;;;;5019897;28;20450;-84
2021/07/19 16:53:21;;;;;;;17.17;15.37;;;24.20;79.20;;;;;;5002512;28;20462;-85
2021/07/19 16:56:11;;;;;;;17.47;15.67;;;24.40;79.70;;;;;;4989929;28;20872;-83
2021/07/19 16:59:01;;;;;;;17.57;15.77;;;24.50;79.40;;;;;;4986166;28;20459;-84
2021/07/19 17:01:34;;;;;;;16.27;14.70;;;24.60;78.70;;;;;;4996898;28;20529;-84
2021/07/19 17:07:45;;;;;;;18.57;14.80;;;24.50;79.30;;;;;;5011818;28;20470;-83
2021/07/19 17:10:25;;;;;;;15.57;13.93;;;24.60;79.60;;;;;;5008154;28;20454;-83
2021/07/19 17:13:33;;;;;;;16.53;14.80;;;24.40;78.90;;;;;;4991974;28;20484;-83
2021/07/19 17:16:36;;;;;;;16.43;14.67;;;24.30;79.90;;;;;;5004505;28;20553;-84
2021/07/19 17:22:28;;;;;;;;;;;;;;;;;;;;;
2021/07/19 17:25:30;;;;;;;16.50;14.50;;;24.50;80.40;;;;;;5010514;28;21004;-84
2021/07/19 17:28:18;;;;;;;17.17;15.50;;;24.40;79.70;;;;;;5004508;28;20926;-84
2021/07/19 17:31:20;;;;;;;18.50;14.67;;;24.50;80.20;;;;;;5007741;28;20473;-81
2021/07/19 17:34:33;;;;;;;16.33;14.67;;;24.90;78.60;;;;;;4987748;28;20438;-83
2021/07/19 17:37:56;;;;;;;;;;;;;;;;;;;;;
2021/07/19 17:41:45;;;;;;;19.57;14.73;;;24.80;79.00;;;;;;5003337;28;20496;-81
2021/07/19 17:44:40;;;;;;;18.60;14.30;;;24.70;78.80;;;;;;4904641;29;20501;-80
2021/07/19 17:55:14;;;;;;;19.40;14.57;;;24.70;79.00;;;;;;4959687;28;20634;-82
2021/07/19 17:58:42;;;;;;;18.10;16.23;;;24.60;80.70;;;;;;5003837;28;21030;-84
2021/07/19 18:02:17;;;;;;;17.73;14.00;;;24.40;81.70;;;;;;5000404;28;20505;-82
2021/07/19 18:05:16;;;;;;;17.57;14.37;;;24.40;82.20;;;;;;4992865;28;20624;-83
2021/07/19 18:11:31;;;;;;;17.23;13.93;;;24.30;82.20;;;;;;4998459;23;20491;-85
2021/07/19 18:14:33;;;;;;;;;;;;;;;;;;;;;
2021/07/19 18:17:25;;;;;;;15.47;13.90;;;24.30;83.20;;;;;;5024428;28;20673;-82
2021/07/19 18:20:46;;;;;;;16.23;13.67;;;24.00;83.30;;;;;;5007361;28;20437;-81
2021/07/19 18:23:56;;;;;;;16.60;13.50;;;24.10;83.70;;;;;;4938551;29;20495;-84
2021/07/19 18:30:37;;;;;;;18.33;14.27;;;23.90;83.60;;;;;;4948798;29;20625;-83
2021/07/19 18:33:39;;;;;;;19.27;14.43;;;24.00;83.00;;;;;;4887264;29;20454;-81
2021/07/19 18:36:53;;;;;;;16.60;14.90;;;24.10;83.80;;;;;;4920232;29;20513;-81
2021/07/19 18:57:14;;;;;;;15.23;11.80;;;23.60;85.20;;;;;;4940351;29;20411;-83
2021/07/19 19:23:57;;;;;;;13.27;11.17;;;23.30;87.20;;;;;;4924937;29;20489;-83
2021/07/19 19:30:50;;;;;;;;;;;;;;;;;;;;;
2021/07/19 19:34:28;;;;;;;;;;;;;;;;;;;;;
2021/07/19 19:37:40;;;;;;;14.60;12.43;;;22.90;88.20;;;;;;4903003;29;20448;-84
2021/07/19 19:40:45;;;;;;;15.63;12.27;;;22.90;88.10;;;;;;4894290;29;20454;-86
2021/07/19 19:43:36;;;;;;;17.57;12.80;;;23.00;88.20;;;;;;4865056;29;20936;-85
2021/07/19 19:46:34;;;;;;;14.87;13.27;;;22.90;88.70;;;;;;4832424;29;20547;-85
2021/07/19 19:49:37;;;;;;;16.63;13.03;;;22.90;89.00;;;;;;4845841;29;20511;-84